In Rescue
 
Open Full Screen Window  High Contrast Mode
Wind Gusting 00 knots
08
July 25, 2021 8:39 AM EDT
Present Weather: Drizzle
Weather Information
Wind Direction
  170 °
Wind Speed
  08 kt (9 mph)
Wind Gust
  00 kt (0 mph)
Altimeter
29.82 in
Visibility
5 SM
Temperature
17° C
63° F
Dewpoint
16° C
61° F
Humidity
94%
Sky Condition
Overcast @ 1,600 ft
Broken @ 1,100 ft
MVFR

METAR KEFK 251239Z AUTO 17008KT 5SM DZ BKN011 OVC016 17/16 A2982 RMK AO2 T01700155

FAA Disclaimer: The data displayed is for advisory purposes only and is not to be used for flight planning or operations.